sensor_id;sensor_type;location;lat;lon;timestamp;P1;durP1;ratioP1;P2;durP2;ratioP2
6424;SDS011;12193;42.642;23.384;2023-06-22T00:01:07;14.30;;;9.93;;
6424;SDS011;12193;42.642;23.384;2023-06-22T00:03:37;13.00;;;9.53;;
6424;SDS011;12193;42.642;23.384;2023-06-22T00:06:06;14.33;;;9.77;;
6424;SDS011;12193;42.642;23.384;2023-06-22T02:58:22;13.23;;;9.47;;
6424;SDS011;12193;42.642;23.384;2023-06-22T03:00:51;14.77;;;10.20;;
6424;SDS011;12193;42.642;23.384;2023-06-22T03:03:20;14.27;;;9.73;;
6424;SDS011;12193;42.642;23.384;2023-06-22T03:05:51;12.87;;;10.10;;
6424;SDS011;12193;42.642;23.384;2023-06-22T03:08:21;11.83;;;9.03;;
6424;SDS011;12193;42.642;23.384;2023-06-22T03:10:50;12.30;;;9.27;;
6424;SDS011;12193;42.642;23.384;2023-06-22T03:13:22;13.13;;;9.47;;
6424;SDS011;12193;42.642;23.384;2023-06-22T03:15:52;15.63;;;9.87;;
6424;SDS011;12193;42.642;23.384;2023-06-22T03:18:22;14.30;;;9.33;;
6424;SDS011;12193;42.642;23.384;2023-06-22T03:20:51;15.10;;;10.23;;
6424;SDS011;12193;42.642;23.384;2023-06-22T03:23:20;14.43;;;10.20;;
6424;SDS011;12193;42.642;23.384;2023-06-22T03:25:49;15.07;;;10.47;;
6424;SDS011;12193;42.642;23.384;2023-06-22T03:28:24;17.23;;;10.50;;
6424;SDS011;12193;42.642;23.384;2023-06-22T03:30:54;16.80;;;11.40;;
6424;SDS011;12193;42.642;23.384;2023-06-22T03:33:23;13.83;;;9.70;;
6424;SDS011;12193;42.642;23.384;2023-06-22T03:35:52;17.63;;;11.00;;
6424;SDS011;12193;42.642;23.384;2023-06-22T03:38:22;14.97;;;10.90;;
6424;SDS011;12193;42.642;23.384;2023-06-22T03:40:51;15.90;;;10.33;;
6424;SDS011;12193;42.642;23.384;2023-06-22T03:43:20;14.77;;;10.77;;
6424;SDS011;12193;42.642;23.384;2023-06-22T03:45:52;14.07;;;10.03;;
6424;SDS011;12193;42.642;23.384;2023-06-22T03:48:22;14.37;;;10.13;;
6424;SDS011;12193;42.642;23.384;2023-06-22T03:50:51;14.47;;;10.87;;
6424;SDS011;12193;42.642;23.384;2023-06-22T03:53:20;15.17;;;10.57;;
6424;SDS011;12193;42.642;23.384;2023-06-22T03:55:50;12.97;;;9.90;;
6424;SDS011;12193;42.642;23.384;2023-06-22T03:58:21;17.47;;;11.60;;
6424;SDS011;12193;42.642;23.384;2023-06-22T04:00:53;14.60;;;10.87;;
6424;SDS011;12193;42.642;23.384;2023-06-22T04:03:23;17.13;;;10.60;;
6424;SDS011;12193;42.642;23.384;2023-06-22T04:05:52;19.03;;;11.30;;
6424;SDS011;12193;42.642;23.384;2023-06-22T04:08:21;16.13;;;10.87;;
6424;SDS011;12193;42.642;23.384;2023-06-22T04:10:51;16.33;;;10.80;;
6424;SDS011;12193;42.642;23.384;2023-06-22T04:13:20;15.40;;;10.77;;
6424;SDS011;12193;42.642;23.384;2023-06-22T04:15:49;17.80;;;11.00;;
6424;SDS011;12193;42.642;23.384;2023-06-22T04:18:21;23.40;;;12.97;;
6424;SDS011;12193;42.642;23.384;2023-06-22T04:20:51;17.73;;;12.07;;
6424;SDS011;12193;42.642;23.384;2023-06-22T04:23:20;23.07;;;11.40;;
6424;SDS011;12193;42.642;23.384;2023-06-22T04:25:49;17.40;;;11.80;;
6424;SDS011;12193;42.642;23.384;2023-06-22T04:28:19;20.63;;;12.67;;
6424;SDS011;12193;42.642;23.384;2023-06-22T04:30:48;18.63;;;12.77;;
6424;SDS011;12193;42.642;23.384;2023-06-22T04:33:19;21.30;;;12.13;;
6424;SDS011;12193;42.642;23.384;2023-06-22T04:35:51;18.97;;;12.13;;
6424;SDS011;12193;42.642;23.384;2023-06-22T04:38:22;21.93;;;12.40;;
6424;SDS011;12193;42.642;23.384;2023-06-22T04:40:52;15.30;;;10.87;;
6424;SDS011;12193;42.642;23.384;2023-06-22T04:43:22;14.63;;;10.87;;
6424;SDS011;12193;42.642;23.384;2023-06-22T04:45:51;21.07;;;12.67;;
6424;SDS011;12193;42.642;23.384;2023-06-22T04:48:24;19.60;;;11.10;;
6424;SDS011;12193;42.642;23.384;2023-06-22T04:50:58;17.30;;;11.67;;
6424;SDS011;12193;42.642;23.384;2023-06-22T04:53:28;19.13;;;11.30;;
6424;SDS011;12193;42.642;23.384;2023-06-22T04:55:58;16.07;;;12.10;;
6424;SDS011;12193;42.642;23.384;2023-06-22T04:58:30;18.47;;;11.57;;
6424;SDS011;12193;42.642;23.384;2023-06-22T05:00:59;15.40;;;11.20;;
6424;SDS011;12193;42.642;23.384;2023-06-22T05:03:32;16.50;;;11.53;;
6424;SDS011;12193;42.642;23.384;2023-06-22T05:06:02;18.07;;;11.97;;
6424;SDS011;12193;42.642;23.384;2023-06-22T05:08:32;23.17;;;11.90;;
6424;SDS011;12193;42.642;23.384;2023-06-22T05:11:01;17.07;;;12.20;;
6424;SDS011;12193;42.642;23.384;2023-06-22T05:13:31;16.80;;;12.40;;
6424;SDS011;12193;42.642;23.384;2023-06-22T05:16:00;17.70;;;11.93;;
6424;SDS011;12193;42.642;23.384;2023-06-22T05:18:34;22.63;;;12.50;;
6424;SDS011;12193;42.642;23.384;2023-06-22T05:21:04;19.53;;;12.00;;
6424;SDS011;12193;42.642;23.384;2023-06-22T05:23:33;18.00;;;12.50;;
6424;SDS011;12193;42.642;23.384;2023-06-22T05:26:02;21.73;;;13.67;;
6424;SDS011;12193;42.642;23.384;2023-06-22T05:28:35;23.50;;;12.67;;
6424;SDS011;12193;42.642;23.384;2023-06-22T05:31:04;22.13;;;12.67;;
6424;SDS011;12193;42.642;23.384;2023-06-22T05:33:36;19.07;;;12.50;;
6424;SDS011;12193;42.642;23.384;2023-06-22T05:36:06;20.80;;;12.60;;
6424;SDS011;12193;42.642;23.384;2023-06-22T05:38:35;20.27;;;12.90;;
6424;SDS011;12193;42.642;23.384;2023-06-22T05:41:05;14.73;;;11.60;;
6424;SDS011;12193;42.642;23.384;2023-06-22T05:43:35;17.20;;;11.37;;
6424;SDS011;12193;42.642;23.384;2023-06-22T05:46:04;20.43;;;12.27;;
6424;SDS011;12193;42.642;23.384;2023-06-22T05:48:36;21.87;;;12.80;;
6424;SDS011;12193;42.642;23.384;2023-06-22T05:51:06;18.27;;;11.97;;
6424;SDS011;12193;42.642;23.384;2023-06-22T05:53:35;20.33;;;12.27;;
6424;SDS011;12193;42.642;23.384;2023-06-22T05:56:04;15.93;;;11.93;;
6424;SDS011;12193;42.642;23.384;2023-06-22T05:58:34;17.70;;;11.77;;
6424;SDS011;12193;42.642;23.384;2023-06-22T06:01:04;18.03;;;11.43;;
6424;SDS011;12193;42.642;23.384;2023-06-22T06:03:36;16.13;;;11.30;;
6424;SDS011;12193;42.642;23.384;2023-06-22T06:06:07;16.40;;;11.20;;
6424;SDS011;12193;42.642;23.384;2023-06-22T06:08:36;19.30;;;10.83;;
6424;SDS011;12193;42.642;23.384;2023-06-22T06:11:05;15.13;;;11.60;;
6424;SDS011;12193;42.642;23.384;2023-06-22T06:13:35;13.53;;;11.17;;
6424;SDS011;12193;42.642;23.384;2023-06-22T06:16:04;17.57;;;11.57;;
6424;SDS011;12193;42.642;23.384;2023-06-22T06:18:36;16.97;;;11.97;;
6424;SDS011;12193;42.642;23.384;2023-06-22T06:21:06;15.97;;;11.90;;
6424;SDS011;12193;42.642;23.384;2023-06-22T06:23:35;22.07;;;12.00;;
6424;SDS011;12193;42.642;23.384;2023-06-22T06:26:04;19.57;;;12.53;;
6424;SDS011;12193;42.642;23.384;2023-06-22T06:28:34;17.20;;;11.93;;
6424;SDS011;12193;42.642;23.384;2023-06-22T06:31:04;16.63;;;12.43;;
6424;SDS011;12193;42.642;23.384;2023-06-22T06:33:37;19.37;;;12.50;;
6424;SDS011;12193;42.642;23.384;2023-06-22T06:36:06;16.63;;;11.93;;
6424;SDS011;12193;42.642;23.384;2023-06-22T06:38:36;22.80;;;11.87;;
6424;SDS011;12193;42.642;23.384;2023-06-22T06:41:05;20.33;;;13.00;;
6424;SDS011;12193;42.642;23.384;2023-06-22T06:43:34;19.33;;;13.20;;
6424;SDS011;12193;42.642;23.384;2023-06-22T06:46:03;20.53;;;12.87;;
6424;SDS011;12193;42.642;23.384;2023-06-22T06:48:33;16.83;;;12.00;;
6424;SDS011;12193;42.642;23.384;2023-06-22T06:51:04;17.90;;;12.20;;
6424;SDS011;12193;42.642;23.384;2023-06-22T06:53:35;17.70;;;12.40;;
6424;SDS011;12193;42.642;23.384;2023-06-22T06:56:05;19.20;;;12.33;;
6424;SDS011;12193;42.642;23.384;2023-06-22T06:58:36;17.90;;;12.43;;
6424;SDS011;12193;42.642;23.384;2023-06-22T07:01:05;18.97;;;11.83;;
6424;SDS011;12193;42.642;23.384;2023-06-22T07:03:35;17.13;;;12.13;;
6424;SDS011;12193;42.642;23.384;2023-06-22T07:06:07;15.60;;;11.30;;
6424;SDS011;12193;42.642;23.384;2023-06-22T07:08:37;21.80;;;13.10;;
6424;SDS011;12193;42.642;23.384;2023-06-22T07:11:06;18.87;;;12.60;;
6424;SDS011;12193;42.642;23.384;2023-06-22T07:13:35;17.90;;;12.33;;
6424;SDS011;12193;42.642;23.384;2023-06-22T07:16:05;18.90;;;12.43;;
6424;SDS011;12193;42.642;23.384;2023-06-22T07:18:34;15.43;;;11.60;;
6424;SDS011;12193;42.642;23.384;2023-06-22T07:21:03;17.57;;;12.03;;
6424;SDS011;12193;42.642;23.384;2023-06-22T07:23:35;18.83;;;11.57;;
6424;SDS011;12193;42.642;23.384;2023-06-22T07:26:04;16.50;;;11.83;;
6424;SDS011;12193;42.642;23.384;2023-06-22T07:28:34;19.70;;;11.63;;
6424;SDS011;12193;42.642;23.384;2023-06-22T07:31:06;16.07;;;11.80;;
6424;SDS011;12193;42.642;23.384;2023-06-22T07:33:36;16.67;;;12.33;;
6424;SDS011;12193;42.642;23.384;2023-06-22T07:36:05;16.10;;;11.93;;
6424;SDS011;12193;42.642;23.384;2023-06-22T07:38:37;21.20;;;11.93;;
6424;SDS011;12193;42.642;23.384;2023-06-22T07:41:06;21.50;;;12.18;;
6424;SDS011;12193;42.642;23.384;2023-06-22T07:43:35;19.73;;;12.40;;
6424;SDS011;12193;42.642;23.384;2023-06-22T07:46:04;16.52;;;12.02;;
6424;SDS011;12193;42.642;23.384;2023-06-22T07:48:36;21.38;;;13.10;;
6424;SDS011;12193;42.642;23.384;2023-06-22T07:51:07;21.23;;;12.45;;
6424;SDS011;12193;42.642;23.384;2023-06-22T07:53:41;19.35;;;12.45;;
6424;SDS011;12193;42.642;23.384;2023-06-22T07:56:12;19.07;;;12.50;;
6424;SDS011;12193;42.642;23.384;2023-06-22T07:58:45;18.37;;;12.30;;
6424;SDS011;12193;42.642;23.384;2023-06-22T08:01:14;17.30;;;11.70;;
6424;SDS011;12193;42.642;23.384;2023-06-22T08:03:47;13.98;;;11.65;;
6424;SDS011;12193;42.642;23.384;2023-06-22T08:06:16;17.33;;;11.57;;
6424;SDS011;12193;42.642;23.384;2023-06-22T08:08:48;17.58;;;10.93;;
6424;SDS011;12193;42.642;23.384;2023-06-22T08:11:19;15.23;;;11.10;;
6424;SDS011;12193;42.642;23.384;2023-06-22T08:13:51;16.02;;;11.63;;
6424;SDS011;12193;42.642;23.384;2023-06-22T08:16:21;16.25;;;10.90;;
6424;SDS011;12193;42.642;23.384;2023-06-22T08:18:50;18.13;;;12.27;;
6424;SDS011;12193;42.642;23.384;2023-06-22T08:21:20;16.30;;;11.73;;
6424;SDS011;12193;42.642;23.384;2023-06-22T08:23:52;17.10;;;12.45;;
6424;SDS011;12193;42.642;23.384;2023-06-22T08:26:22;17.48;;;12.32;;
6424;SDS011;12193;42.642;23.384;2023-06-22T08:28:51;18.13;;;11.80;;
6424;SDS011;12193;42.642;23.384;2023-06-22T08:31:21;19.15;;;11.80;;
6424;SDS011;12193;42.642;23.384;2023-06-22T08:33:50;18.15;;;12.15;;
6424;SDS011;12193;42.642;23.384;2023-06-22T08:36:19;16.50;;;11.30;;
6424;SDS011;12193;42.642;23.384;2023-06-22T08:38:48;15.02;;;11.95;;
6424;SDS011;12193;42.642;23.384;2023-06-22T08:41:27;15.13;;;11.65;;
6424;SDS011;12193;42.642;23.384;2023-06-22T08:43:57;15.23;;;11.88;;
6424;SDS011;12193;42.642;23.384;2023-06-22T08:46:26;18.15;;;12.10;;
6424;SDS011;12193;42.642;23.384;2023-06-22T08:48:59;17.92;;;11.73;;
6424;SDS011;12193;42.642;23.384;2023-06-22T08:51:28;14.90;;;12.02;;
6424;SDS011;12193;42.642;23.384;2023-06-22T08:54:00;15.70;;;11.77;;
6424;SDS011;12193;42.642;23.384;2023-06-22T08:56:29;18.55;;;11.52;;
6424;SDS011;12193;42.642;23.384;2023-06-22T08:58:59;17.90;;;11.80;;
6424;SDS011;12193;42.642;23.384;2023-06-22T09:01:28;20.30;;;11.45;;
6424;SDS011;12193;42.642;23.384;2023-06-22T09:03:58;14.93;;;12.25;;
6424;SDS011;12193;42.642;23.384;2023-06-22T09:06:27;14.60;;;12.20;;
6424;SDS011;12193;42.642;23.384;2023-06-22T09:09:00;16.13;;;11.55;;
6424;SDS011;12193;42.642;23.384;2023-06-22T09:11:29;16.05;;;11.60;;
6424;SDS011;12193;42.642;23.384;2023-06-22T09:13:59;16.70;;;11.80;;
6424;SDS011;12193;42.642;23.384;2023-06-22T09:16:29;15.25;;;11.70;;
6424;SDS011;12193;42.642;23.384;2023-06-22T09:18:58;17.17;;;11.52;;
6424;SDS011;12193;42.642;23.384;2023-06-22T09:21:28;17.92;;;12.00;;
6424;SDS011;12193;42.642;23.384;2023-06-22T09:24:00;14.55;;;10.95;;
6424;SDS011;12193;42.642;23.384;2023-06-22T09:26:29;18.20;;;10.88;;
6424;SDS011;12193;42.642;23.384;2023-06-22T09:28:58;12.95;;;10.38;;
6424;SDS011;12193;42.642;23.384;2023-06-22T09:31:28;14.63;;;10.52;;
6424;SDS011;12193;42.642;23.384;2023-06-22T09:33:58;14.07;;;11.07;;
6424;SDS011;12193;42.642;23.384;2023-06-22T09:36:27;17.08;;;10.90;;
6424;SDS011;12193;42.642;23.384;2023-06-22T09:38:56;14.55;;;10.73;;
6424;SDS011;12193;42.642;23.384;2023-06-22T09:41:34;16.23;;;10.23;;
6424;SDS011;12193;42.642;23.384;2023-06-22T09:44:03;18.73;;;10.55;;
6424;SDS011;12193;42.642;23.384;2023-06-22T09:46:33;19.55;;;11.02;;
6424;SDS011;12193;42.642;23.384;2023-06-22T09:49:02;15.43;;;10.27;;
6424;SDS011;12193;42.642;23.384;2023-06-22T09:51:31;12.80;;;10.75;;
6424;SDS011;12193;42.642;23.384;2023-06-22T09:54:01;16.90;;;10.40;;
6424;SDS011;12193;42.642;23.384;2023-06-22T09:56:30;11.90;;;9.95;;
6424;SDS011;12193;42.642;23.384;2023-06-22T09:59:02;14.25;;;9.60;;
6424;SDS011;12193;42.642;23.384;2023-06-22T10:01:31;14.15;;;10.20;;
6424;SDS011;12193;42.642;23.384;2023-06-22T10:04:01;13.50;;;10.60;;
6424;SDS011;12193;42.642;23.384;2023-06-22T10:06:31;15.35;;;10.35;;
6424;SDS011;12193;42.642;23.384;2023-06-22T10:09:00;17.13;;;10.63;;
6424;SDS011;12193;42.642;23.384;2023-06-22T10:11:29;13.75;;;10.48;;
6424;SDS011;12193;42.642;23.384;2023-06-22T10:14:03;15.38;;;10.80;;
6424;SDS011;12193;42.642;23.384;2023-06-22T10:16:32;14.60;;;10.82;;
6424;SDS011;12193;42.642;23.384;2023-06-22T10:19:03;16.05;;;11.20;;
6424;SDS011;12193;42.642;23.384;2023-06-22T10:21:32;12.00;;;10.52;;
6424;SDS011;12193;42.642;23.384;2023-06-22T10:24:01;16.02;;;10.68;;
6424;SDS011;12193;42.642;23.384;2023-06-22T10:26:32;18.75;;;10.48;;
6424;SDS011;12193;42.642;23.384;2023-06-22T10:29:04;12.43;;;9.88;;
6424;SDS011;12193;42.642;23.384;2023-06-22T10:31:33;12.02;;;9.73;;
6424;SDS011;12193;42.642;23.384;2023-06-22T10:34:02;13.07;;;10.55;;
6424;SDS011;12193;42.642;23.384;2023-06-22T10:36:32;14.98;;;10.90;;
6424;SDS011;12193;42.642;23.384;2023-06-22T10:39:01;13.02;;;10.25;;
6424;SDS011;12193;42.642;23.384;2023-06-22T10:41:31;12.75;;;9.98;;
6424;SDS011;12193;42.642;23.384;2023-06-22T10:44:00;11.77;;;10.00;;
6424;SDS011;12193;42.642;23.384;2023-06-22T10:46:32;11.68;;;8.90;;
6424;SDS011;12193;42.642;23.384;2023-06-22T10:49:02;10.05;;;8.38;;
6424;SDS011;12193;42.642;23.384;2023-06-22T10:51:31;10.52;;;9.07;;
6424;SDS011;12193;42.642;23.384;2023-06-22T10:54:00;15.60;;;12.20;;
6424;SDS011;12193;42.642;23.384;2023-06-22T10:56:30;15.07;;;8.68;;
6424;SDS011;12193;42.642;23.384;2023-06-22T10:58:59;11.88;;;8.43;;
6424;SDS011;12193;42.642;23.384;2023-06-22T11:01:31;11.43;;;8.75;;
6424;SDS011;12193;42.642;23.384;2023-06-22T11:04:00;10.40;;;8.70;;
6424;SDS011;12193;42.642;23.384;2023-06-22T11:06:30;11.05;;;9.18;;
6424;SDS011;12193;42.642;23.384;2023-06-22T11:08:59;12.07;;;9.55;;
6424;SDS011;12193;42.642;23.384;2023-06-22T11:11:29;12.95;;;9.88;;
6424;SDS011;12193;42.642;23.384;2023-06-22T11:13:59;12.05;;;10.07;;
6424;SDS011;12193;42.642;23.384;2023-06-22T11:16:30;13.65;;;10.35;;
6424;SDS011;12193;42.642;23.384;2023-06-22T11:19:00;11.32;;;9.45;;
6424;SDS011;12193;42.642;23.384;2023-06-22T11:21:29;10.38;;;9.10;;
6424;SDS011;12193;42.642;23.384;2023-06-22T11:23:59;10.63;;;9.52;;
6424;SDS011;12193;42.642;23.384;2023-06-22T11:26:29;12.02;;;9.15;;
6424;SDS011;12193;42.642;23.384;2023-06-22T11:28:58;13.13;;;9.38;;
6424;SDS011;12193;42.642;23.384;2023-06-22T11:31:33;10.50;;;9.13;;
6424;SDS011;12193;42.642;23.384;2023-06-22T11:34:03;8.93;;;8.02;;
6424;SDS011;12193;42.642;23.384;2023-06-22T11:36:33;11.40;;;8.57;;
6424;SDS011;12193;42.642;23.384;2023-06-22T11:39:02;11.13;;;8.80;;
6424;SDS011;12193;42.642;23.384;2023-06-22T11:41:31;10.90;;;8.52;;
6424;SDS011;12193;42.642;23.384;2023-06-22T11:44:01;10.32;;;8.30;;
6424;SDS011;12193;42.642;23.384;2023-06-22T11:46:33;9.25;;;8.32;;
6424;SDS011;12193;42.642;23.384;2023-06-22T11:49:02;10.05;;;8.40;;
6424;SDS011;12193;42.642;23.384;2023-06-22T11:51:32;13.02;;;9.48;;
6424;SDS011;12193;42.642;23.384;2023-06-22T11:54:01;9.82;;;8.75;;
6424;SDS011;12193;42.642;23.384;2023-06-22T11:56:30;10.93;;;8.52;;
6424;SDS011;12193;42.642;23.384;2023-06-22T11:59:00;12.23;;;8.52;;
6424;SDS011;12193;42.642;23.384;2023-06-22T12:01:29;10.75;;;8.45;;
6424;SDS011;12193;42.642;23.384;2023-06-22T12:04:01;9.52;;;8.07;;
6424;SDS011;12193;42.642;23.384;2023-06-22T12:06:31;9.02;;;7.97;;
6424;SDS011;12193;42.642;23.384;2023-06-22T12:09:02;9.13;;;7.85;;
6424;SDS011;12193;42.642;23.384;2023-06-22T12:11:32;10.50;;;9.40;;
6424;SDS011;12193;42.642;23.384;2023-06-22T12:14:01;9.98;;;8.98;;
6424;SDS011;12193;42.642;23.384;2023-06-22T12:16:31;12.15;;;8.75;;
6424;SDS011;12193;42.642;23.384;2023-06-22T12:19:02;10.57;;;8.07;;
6424;SDS011;12193;42.642;23.384;2023-06-22T12:21:32;11.90;;;8.90;;
6424;SDS011;12193;42.642;23.384;2023-06-22T12:24:02;14.75;;;9.73;;
6424;SDS011;12193;42.642;23.384;2023-06-22T12:26:31;12.40;;;9.07;;
6424;SDS011;12193;42.642;23.384;2023-06-22T12:29:01;15.43;;;9.33;;
6424;SDS011;12193;42.642;23.384;2023-06-22T12:31:30;14.30;;;8.87;;
6424;SDS011;12193;42.642;23.384;2023-06-22T12:33:59;13.23;;;8.40;;
6424;SDS011;12193;42.642;23.384;2023-06-22T12:36:31;11.83;;;8.13;;
6424;SDS011;12193;42.642;23.384;2023-06-22T12:39:01;13.77;;;9.07;;
6424;SDS011;12193;42.642;23.384;2023-06-22T12:41:30;13.70;;;7.80;;
6424;SDS011;12193;42.642;23.384;2023-06-22T12:43:59;14.23;;;9.47;;
6424;SDS011;12193;42.642;23.384;2023-06-22T12:46:28;14.03;;;9.27;;
6424;SDS011;12193;42.642;23.384;2023-06-22T12:49:03;18.00;;;10.17;;
6424;SDS011;12193;42.642;23.384;2023-06-22T12:51:39;14.70;;;9.73;;
6424;SDS011;12193;42.642;23.384;2023-06-22T12:54:10;19.27;;;10.43;;
6424;SDS011;12193;42.642;23.384;2023-06-22T12:56:40;20.77;;;12.67;;
6424;SDS011;12193;42.642;23.384;2023-06-22T12:59:09;17.80;;;10.63;;
6424;SDS011;12193;42.642;23.384;2023-06-22T13:01:39;15.77;;;10.50;;
6424;SDS011;12193;42.642;23.384;2023-06-22T13:04:09;13.93;;;10.00;;
6424;SDS011;12193;42.642;23.384;2023-06-22T13:06:43;13.47;;;9.67;;
6424;SDS011;12193;42.642;23.384;2023-06-22T13:09:13;13.93;;;10.10;;
6424;SDS011;12193;42.642;23.384;2023-06-22T13:11:43;15.57;;;10.30;;
6424;SDS011;12193;42.642;23.384;2023-06-22T13:14:13;16.67;;;10.50;;
6424;SDS011;12193;42.642;23.384;2023-06-22T13:16:42;16.13;;;11.23;;
6424;SDS011;12193;42.642;23.384;2023-06-22T13:19:11;19.80;;;12.87;;
6424;SDS011;12193;42.642;23.384;2023-06-22T13:21:44;18.73;;;11.60;;
6424;SDS011;12193;42.642;23.384;2023-06-22T13:24:13;17.70;;;12.43;;
6424;SDS011;12193;42.642;23.384;2023-06-22T13:26:43;15.27;;;11.30;;
6424;SDS011;12193;42.642;23.384;2023-06-22T13:29:12;16.53;;;11.33;;
6424;SDS011;12193;42.642;23.384;2023-06-22T13:31:41;14.17;;;10.10;;
6424;SDS011;12193;42.642;23.384;2023-06-22T13:34:11;17.73;;;10.80;;
6424;SDS011;12193;42.642;23.384;2023-06-22T13:36:43;15.90;;;10.43;;
6424;SDS011;12193;42.642;23.384;2023-06-22T13:39:12;14.77;;;10.53;;
6424;SDS011;12193;42.642;23.384;2023-06-22T13:41:41;14.53;;;9.83;;
6424;SDS011;12193;42.642;23.384;2023-06-22T13:44:11;13.60;;;9.87;;
6424;SDS011;12193;42.642;23.384;2023-06-22T13:46:40;16.67;;;10.00;;
6424;SDS011;12193;42.642;23.384;2023-06-22T13:49:10;16.03;;;10.23;;
6424;SDS011;12193;42.642;23.384;2023-06-22T13:51:39;15.03;;;9.60;;
6424;SDS011;12193;42.642;23.384;2023-06-22T13:54:11;17.43;;;9.50;;
6424;SDS011;12193;42.642;23.384;2023-06-22T13:56:40;20.37;;;9.40;;
6424;SDS011;12193;42.642;23.384;2023-06-22T13:59:09;13.53;;;9.43;;
6424;SDS011;12193;42.642;23.384;2023-06-22T14:01:39;15.67;;;9.43;;
6424;SDS011;12193;42.642;23.384;2023-06-22T14:04:09;16.07;;;9.27;;
6424;SDS011;12193;42.642;23.384;2023-06-22T14:06:39;11.57;;;8.60;;
6424;SDS011;12193;42.642;23.384;2023-06-22T14:09:11;14.70;;;9.70;;
6424;SDS011;12193;42.642;23.384;2023-06-22T14:11:40;15.60;;;9.07;;
6424;SDS011;12193;42.642;23.384;2023-06-22T14:14:10;14.70;;;9.47;;
6424;SDS011;12193;42.642;23.384;2023-06-22T14:16:39;16.67;;;9.63;;
6424;SDS011;12193;42.642;23.384;2023-06-22T14:19:08;14.30;;;10.27;;
6424;SDS011;12193;42.642;23.384;2023-06-22T14:21:37;16.37;;;10.07;;
6424;SDS011;12193;42.642;23.384;2023-06-22T14:24:07;16.37;;;10.63;;
6424;SDS011;12193;42.642;23.384;2023-06-22T14:26:38;17.53;;;11.27;;
6424;SDS011;12193;42.642;23.384;2023-06-22T14:29:08;16.60;;;10.57;;
6424;SDS011;12193;42.642;23.384;2023-06-22T14:31:37;14.83;;;10.33;;
6424;SDS011;12193;42.642;23.384;2023-06-22T14:34:07;16.60;;;10.60;;
6424;SDS011;12193;42.642;23.384;2023-06-22T14:36:36;18.53;;;11.67;;
6424;SDS011;12193;42.642;23.384;2023-06-22T14:39:06;17.77;;;10.90;;
6424;SDS011;12193;42.642;23.384;2023-06-22T14:41:35;16.67;;;10.40;;
6424;SDS011;12193;42.642;23.384;2023-06-22T14:44:07;17.10;;;11.93;;
6424;SDS011;12193;42.642;23.384;2023-06-22T14:46:36;16.27;;;11.97;;
6424;SDS011;12193;42.642;23.384;2023-06-22T14:49:05;19.03;;;12.17;;
6424;SDS011;12193;42.642;23.384;2023-06-22T14:51:35;16.93;;;12.00;;
6424;SDS011;12193;42.642;23.384;2023-06-22T14:54:04;18.30;;;12.10;;
6424;SDS011;12193;42.642;23.384;2023-06-22T14:56:34;17.43;;;12.27;;
6424;SDS011;12193;42.642;23.384;2023-06-22T14:59:03;19.73;;;13.40;;
6424;SDS011;12193;42.642;23.384;2023-06-22T15:01:35;19.80;;;12.27;;
6424;SDS011;12193;42.642;23.384;2023-06-22T15:04:04;18.77;;;13.60;;
6424;SDS011;12193;42.642;23.384;2023-06-22T15:06:33;19.10;;;12.97;;
6424;SDS011;12193;42.642;23.384;2023-06-22T15:09:03;18.23;;;12.80;;
6424;SDS011;12193;42.642;23.384;2023-06-22T15:11:32;18.73;;;12.73;;
6424;SDS011;12193;42.642;23.384;2023-06-22T15:14:02;18.40;;;12.43;;
6424;SDS011;12193;42.642;23.384;2023-06-22T15:16:31;18.33;;;11.93;;
6424;SDS011;12193;42.642;23.384;2023-06-22T15:19:03;20.63;;;12.63;;
6424;SDS011;12193;42.642;23.384;2023-06-22T15:21:32;17.63;;;12.70;;
6424;SDS011;12193;42.642;23.384;2023-06-22T15:24:02;19.10;;;12.87;;
6424;SDS011;12193;42.642;23.384;2023-06-22T15:26:31;17.73;;;12.30;;
6424;SDS011;12193;42.642;23.384;2023-06-22T15:29:00;16.83;;;13.07;;
6424;SDS011;12193;42.642;23.384;2023-06-22T15:31:30;18.70;;;12.93;;
6424;SDS011;12193;42.642;23.384;2023-06-22T15:33:59;16.63;;;11.97;;
6424;SDS011;12193;42.642;23.384;2023-06-22T15:36:31;17.83;;;11.83;;
6424;SDS011;12193;42.642;23.384;2023-06-22T15:39:01;19.13;;;11.67;;
6424;SDS011;12193;42.642;23.384;2023-06-22T15:41:30;17.77;;;10.97;;
6424;SDS011;12193;42.642;23.384;2023-06-22T15:44:00;14.53;;;11.10;;
6424;SDS011;12193;42.642;23.384;2023-06-22T15:46:29;16.83;;;11.20;;
6424;SDS011;12193;42.642;23.384;2023-06-22T15:48:58;16.27;;;10.53;;
6424;SDS011;12193;42.642;23.384;2023-06-22T15:51:27;14.30;;;10.80;;
6424;SDS011;12193;42.642;23.384;2023-06-22T15:53:59;14.63;;;11.03;;
6424;SDS011;12193;42.642;23.384;2023-06-22T15:56:29;16.60;;;11.87;;
6424;SDS011;12193;42.642;23.384;2023-06-22T15:58:58;16.20;;;11.67;;
6424;SDS011;12193;42.642;23.384;2023-06-22T16:01:27;20.47;;;11.87;;
6424;SDS011;12193;42.642;23.384;2023-06-22T16:03:56;18.20;;;11.67;;
6424;SDS011;12193;42.642;23.384;2023-06-22T16:06:25;16.70;;;12.00;;
6424;SDS011;12193;42.642;23.384;2023-06-22T16:08:55;16.70;;;11.27;;
6424;SDS011;12193;42.642;23.384;2023-06-22T16:11:27;16.60;;;11.10;;
6424;SDS011;12193;42.642;23.384;2023-06-22T16:13:57;17.20;;;11.53;;
6424;SDS011;12193;42.642;23.384;2023-06-22T16:16:26;17.30;;;11.53;;
6424;SDS011;12193;42.642;23.384;2023-06-22T16:18:55;17.77;;;11.80;;
6424;SDS011;12193;42.642;23.384;2023-06-22T16:21:25;15.90;;;12.03;;
6424;SDS011;12193;42.642;23.384;2023-06-22T16:23:54;19.43;;;12.80;;
6424;SDS011;12193;42.642;23.384;2023-06-22T16:26:23;19.07;;;12.70;;
6424;SDS011;12193;42.642;23.384;2023-06-22T16:28:55;18.53;;;12.77;;
6424;SDS011;12193;42.642;23.384;2023-06-22T16:31:24;17.13;;;12.37;;
6424;SDS011;12193;42.642;23.384;2023-06-22T16:33:54;19.57;;;13.57;;
6424;SDS011;12193;42.642;23.384;2023-06-22T16:36:23;20.50;;;13.17;;
6424;SDS011;12193;42.642;23.384;2023-06-22T16:38:52;24.30;;;13.97;;
6424;SDS011;12193;42.642;23.384;2023-06-22T16:41:22;18.93;;;13.37;;
6424;SDS011;12193;42.642;23.384;2023-06-22T16:43:51;24.07;;;13.80;;
6424;SDS011;12193;42.642;23.384;2023-06-22T16:46:23;21.00;;;12.97;;
6424;SDS011;12193;42.642;23.384;2023-06-22T16:48:52;20.27;;;13.67;;
6424;SDS011;12193;42.642;23.384;2023-06-22T16:51:21;19.73;;;13.07;;
6424;SDS011;12193;42.642;23.384;2023-06-22T16:53:52;21.90;;;14.57;;
6424;SDS011;12193;42.642;23.384;2023-06-22T16:56:23;22.73;;;13.33;;
6424;SDS011;12193;42.642;23.384;2023-06-22T16:58:54;17.77;;;12.17;;
6424;SDS011;12193;42.642;23.384;2023-06-22T17:01:27;19.77;;;12.27;;
6424;SDS011;12193;42.642;23.384;2023-06-22T17:04:01;16.73;;;12.33;;
6424;SDS011;12193;42.642;23.384;2023-06-22T17:06:33;16.63;;;12.50;;
6424;SDS011;12193;42.642;23.384;2023-06-22T17:09:02;21.90;;;13.30;;
6424;SDS011;12193;42.642;23.384;2023-06-22T17:11:33;16.33;;;11.73;;
6424;SDS011;12193;42.642;23.384;2023-06-22T17:14:02;19.70;;;13.17;;
6424;SDS011;12193;42.642;23.384;2023-06-22T17:16:34;16.77;;;12.80;;
6424;SDS011;12193;42.642;23.384;2023-06-22T17:19:06;20.10;;;13.00;;
6424;SDS011;12193;42.642;23.384;2023-06-22T17:21:36;17.33;;;12.53;;
6424;SDS011;12193;42.642;23.384;2023-06-22T17:24:07;21.63;;;13.57;;
6424;SDS011;12193;42.642;23.384;2023-06-22T17:26:36;16.80;;;12.90;;
6424;SDS011;12193;42.642;23.384;2023-06-22T17:29:07;17.30;;;13.00;;